Terminal Aerodrome Forecast
Issued by NWS

Home | Current Version | Previous Version | Text Only | Print | Product List | Glossary On
Versions: 1 2 3 4 5 6 7 8 9 10 11 12
424
FTUS46 KMTR 011724
TAFSTS
TAF
KSTS 011724Z 0118/0218 34006KT P6SM SKC
     FM011900 VRB03KT P6SM SKC
     FM012200 22008KT P6SM SKC
     FM021500 VRB03KT 4SM BR OVC015=

USA.gov is the U.S. government's official web portal to all federal, state and local government web resources and services.